Time;durP1;ratioP1;P1;durP2;ratioP2;P2;SDS_P1;SDS_P2;PMS_P1;PMS_P2;Temp;Humidity;BMP_temperature;BMP_pressure;BME280_temperature;BME280_humidity;BME280_pressure;Samples;Min_cycle;Max_cycle;Signal;HPM_P1;HPM_P2
2023/08/27 00:02:10;;;;;;;9.73;6.30;;;15.00;99.90;;;;;;5100100;28;20646;-85
2023/08/27 00:04:37;;;;;;;9.17;5.97;;;15.00;99.90;;;;;;5097378;28;20234;-86
2023/08/27 00:07:05;;;;;;;7.53;6.43;;;15.00;99.90;;;;;;5098049;28;20200;-85
2023/08/27 00:09:32;;;;;;;8.20;6.23;;;14.80;99.90;;;;;;5101312;28;20226;-86
2023/08/27 00:11:58;;;;;;;8.37;6.13;;;15.00;99.90;;;;;;5107135;28;20307;-84
2023/08/27 00:14:26;;;;;;;9.13;5.83;;;14.90;99.90;;;;;;5121264;28;20207;-85
2023/08/27 00:16:55;;;;;;;11.27;6.93;;;14.80;99.90;;;;;;5117654;27;20234;-84
2023/08/27 00:19:21;;;;;;;8.00;5.43;;;14.70;99.90;;;;;;5127464;27;20198;-85
2023/08/27 00:21:51;;;;;;;8.40;5.87;;;15.00;99.90;;;;;;5120321;28;20278;-85
2023/08/27 00:24:19;;;;;;;7.10;5.73;;;14.80;99.90;;;;;;5112518;27;20344;-85
2023/08/27 00:26:46;;;;;;;7.10;5.77;;;14.70;99.90;;;;;;5102465;28;20271;-85
2023/08/27 00:29:18;;;;;;;8.43;5.40;;;14.70;99.90;;;;;;5116356;27;20206;-87
2023/08/27 00:31:45;;;;;;;7.47;5.90;;;14.70;99.90;;;;;;5120784;28;20214;-86
2023/08/27 00:34:12;;;;;;;7.83;6.27;;;14.70;99.90;;;;;;5117298;27;20194;-85
2023/08/27 00:36:39;;;;;;;10.33;5.60;;;14.70;99.90;;;;;;5105305;28;20231;-87
2023/08/27 00:39:08;;;;;;;9.50;5.60;;;14.70;99.90;;;;;;5121547;28;20207;-86
2023/08/27 00:41:35;;;;;;;9.13;6.53;;;14.90;99.90;;;;;;5120711;28;20195;-83
2023/08/27 00:44:02;;;;;;;7.07;5.80;;;14.70;99.90;;;;;;5121991;28;20199;-85
2023/08/27 00:46:29;;;;;;;8.57;6.40;;;14.70;99.90;;;;;;5126143;28;20245;-85
2023/08/27 00:48:56;;;;;;;8.23;5.77;;;14.80;99.90;;;;;;5124645;28;20203;-85
2023/08/27 00:51:23;;;;;;;8.00;5.77;;;14.80;99.90;;;;;;5126911;28;20199;-85
2023/08/27 00:53:52;;;;;;;7.97;6.07;;;14.80;99.90;;;;;;5106486;28;20211;-84
2023/08/27 00:56:19;;;;;;;9.90;6.40;;;14.80;99.90;;;;;;5121935;28;20231;-85
2023/08/27 00:58:46;;;;;;;7.63;5.73;;;14.80;99.90;;;;;;5120718;28;20236;-85
2023/08/27 01:01:16;;;;;;;7.73;6.10;;;14.80;99.90;;;;;;5124149;28;20629;-85
2023/08/27 01:03:44;;;;;;;8.90;5.77;;;14.80;99.90;;;;;;5122170;27;20299;-85
2023/08/27 01:06:11;;;;;;;7.33;5.73;;;14.80;99.90;;;;;;5102023;28;20766;-85
2023/08/27 01:08:56;;;;;;;8.00;5.73;;;14.90;99.90;;;;;;5098141;28;20195;-85
2023/08/27 01:11:29;;;;;;;6.40;5.20;;;14.90;99.90;;;;;;5132574;27;20707;-85
2023/08/27 01:14:05;;;;;;;7.10;5.40;;;14.80;99.90;;;;;;5120057;28;20214;-85
2023/08/27 01:16:35;;;;;;;7.23;5.90;;;14.80;99.90;;;;;;5118903;28;20229;-85
2023/08/27 01:19:07;;;;;;;7.90;5.97;;;14.80;99.90;;;;;;5117546;28;20199;-87
2023/08/27 01:21:34;;;;;;;11.17;5.90;;;14.80;99.90;;;;;;5121015;28;20272;-84
2023/08/27 01:24:01;;;;;;;7.90;6.00;;;14.90;99.90;;;;;;5108658;28;20206;-86
2023/08/27 01:26:56;;;;;;;9.30;6.07;;;14.80;99.90;;;;;;5104793;27;20210;-85
2023/08/27 01:29:31;;;;;;;8.70;6.50;;;14.80;99.90;;;;;;5124360;28;20552;-86
2023/08/27 01:32:15;;;;;;;9.00;6.20;;;14.80;99.90;;;;;;5123869;28;20229;-85
2023/08/27 01:34:43;;;;;;;8.93;6.03;;;14.80;99.90;;;;;;5130717;28;20202;-84
2023/08/27 01:37:14;;;;;;;7.90;6.53;;;14.80;99.90;;;;;;5113712;28;20219;-86
2023/08/27 01:39:44;;;;;;;11.73;6.70;;;14.80;99.90;;;;;;5117735;28;20316;-86
2023/08/27 01:42:12;;;;;;;8.37;6.57;;;14.80;99.90;;;;;;5119012;28;20316;-88
2023/08/27 01:44:39;;;;;;;9.43;7.13;;;14.80;99.90;;;;;;5111469;28;20195;-84
2023/08/27 01:47:06;;;;;;;9.23;6.10;;;14.70;99.90;;;;;;5112863;28;20605;-84
2023/08/27 01:49:34;;;;;;;7.67;6.23;;;14.80;99.90;;;;;;5132027;28;20195;-83
2023/08/27 01:52:01;;;;;;;9.47;7.03;;;14.80;99.90;;;;;;5131024;28;20217;-86
2023/08/27 01:54:31;;;;;;;10.83;6.07;;;14.80;99.90;;;;;;5129588;28;20199;-84
2023/08/27 01:56:58;;;;;;;11.17;7.00;;;14.80;99.90;;;;;;5130401;28;20238;-84
2023/08/27 01:59:25;;;;;;;8.67;6.70;;;14.80;99.90;;;;;;5111460;28;20223;-84
2023/08/27 02:01:53;;;;;;;8.63;6.50;;;14.80;99.90;;;;;;5127034;28;20280;-85
2023/08/27 02:04:20;;;;;;;9.17;5.77;;;14.80;99.90;;;;;;5120937;28;20232;-84
2023/08/27 02:06:46;;;;;;;10.33;7.00;;;14.80;99.90;;;;;;5112250;28;20218;-82
2023/08/27 02:09:16;;;;;;;10.03;6.47;;;14.90;99.90;;;;;;5111567;28;20241;-83
2023/08/27 02:11:43;;;;;;;10.70;5.97;;;14.90;99.90;;;;;;5109370;28;20203;-85
2023/08/27 02:14:10;;;;;;;9.07;5.97;;;14.90;99.90;;;;;;5106646;28;20188;-84
2023/08/27 02:16:38;;;;;;;8.67;6.43;;;14.90;99.90;;;;;;5085743;28;20235;-83
2023/08/27 02:19:05;;;;;;;9.27;6.33;;;14.90;99.90;;;;;;5125204;28;20192;-83
2023/08/27 02:21:31;;;;;;;9.17;6.20;;;15.00;99.90;;;;;;5094224;28;20815;-83
2023/08/27 02:23:59;;;;;;;9.27;6.10;;;14.90;99.90;;;;;;5109663;28;20200;-84
2023/08/27 02:26:26;;;;;;;8.30;6.30;;;15.00;99.90;;;;;;5102807;28;20229;-81
2023/08/27 02:28:54;;;;;;;5.47;4.83;;;15.00;99.90;;;;;;5089801;28;20211;-84
2023/08/27 02:31:21;;;;;;;7.07;5.67;;;15.00;99.90;;;;;;5098690;28;20204;-84
2023/08/27 02:33:47;;;;;;;9.77;5.83;;;15.00;99.90;;;;;;5099900;28;20219;-83
2023/08/27 02:36:14;;;;;;;11.00;5.40;;;15.10;99.90;;;;;;5100221;28;20219;-85
2023/08/27 02:38:41;;;;;;;6.50;4.53;;;15.10;99.90;;;;;;5094381;28;20212;-84
2023/08/27 02:41:08;;;;;;;7.70;5.13;;;15.10;99.90;;;;;;5095141;28;20196;-85
2023/08/27 02:43:35;;;;;;;5.20;4.60;;;15.10;99.90;;;;;;5094384;28;20261;-85
2023/08/27 02:46:04;;;;;;;5.00;4.33;;;15.10;99.90;;;;;;5075050;28;20216;-84
2023/08/27 02:48:35;;;;;;;7.50;5.03;;;15.10;99.90;;;;;;5078366;28;20202;-85
2023/08/27 02:51:02;;;;;;;6.67;4.47;;;15.10;99.90;;;;;;5095991;28;20755;-84
2023/08/27 02:53:30;;;;;;;6.03;4.50;;;15.10;99.90;;;;;;5095810;28;20200;-84
2023/08/27 02:55:58;;;;;;;5.50;4.30;;;15.10;99.90;;;;;;5094460;28;20242;-84
2023/08/27 02:58:25;;;;;;;7.53;5.10;;;15.10;99.90;;;;;;5094080;28;20294;-83
2023/08/27 03:00:56;;;;;;;5.87;4.90;;;15.10;99.90;;;;;;5076477;28;20273;-83
2023/08/27 03:03:23;;;;;;;5.90;5.10;;;15.10;99.90;;;;;;5109414;28;20230;-83
2023/08/27 03:05:49;;;;;;;6.40;5.00;;;15.10;99.90;;;;;;5099796;28;20671;-84
2023/08/27 03:08:18;;;;;;;5.80;4.73;;;15.00;99.90;;;;;;5081519;28;20238;-84
2023/08/27 03:10:47;;;;;;;6.03;4.70;;;15.00;99.90;;;;;;5103278;28;20208;-83
2023/08/27 03:13:14;;;;;;;6.10;4.97;;;15.00;99.90;;;;;;5117300;28;20203;-83
2023/08/27 03:15:42;;;;;;;5.47;4.60;;;15.00;99.90;;;;;;5105338;28;20215;-83
2023/08/27 03:18:10;;;;;;;7.73;4.77;;;15.00;99.90;;;;;;5094929;28;20270;-84
2023/08/27 03:20:37;;;;;;;6.43;5.30;;;15.00;99.90;;;;;;5109478;28;20283;-83
2023/08/27 03:23:04;;;;;;;6.37;4.97;;;14.90;99.90;;;;;;5094385;28;20210;-87
2023/08/27 03:25:33;;;;;;;6.50;5.17;;;15.00;99.90;;;;;;5095180;28;20320;-85
2023/08/27 03:28:00;;;;;;;6.67;4.70;;;15.00;99.90;;;;;;5114260;28;20203;-84
2023/08/27 03:30:28;;;;;;;6.30;4.97;;;15.00;99.90;;;;;;5098281;28;21324;-85
2023/08/27 03:32:55;;;;;;;6.27;5.17;;;15.00;99.90;;;;;;5092770;28;20227;-83
2023/08/27 03:35:23;;;;;;;6.93;5.47;;;15.00;99.90;;;;;;5093331;28;20736;-83
2023/08/27 03:37:50;;;;;;;7.10;5.57;;;15.00;99.90;;;;;;5086242;28;20257;-83
2023/08/27 03:40:18;;;;;;;6.80;5.07;;;15.00;99.90;;;;;;5094243;28;20208;-82
2023/08/27 03:42:46;;;;;;;7.20;5.40;;;15.00;99.90;;;;;;5100079;28;20200;-83
2023/08/27 03:45:13;;;;;;;6.00;5.13;;;15.00;99.90;;;;;;5060187;28;20208;-84
2023/08/27 03:47:40;;;;;;;5.67;4.80;;;15.00;99.90;;;;;;5094109;28;20215;-83
2023/08/27 03:50:07;;;;;;;7.33;4.70;;;15.00;99.90;;;;;;5093601;28;20354;-84
2023/08/27 03:52:34;;;;;;;6.13;4.70;;;15.00;99.90;;;;;;5075115;28;20611;-84
2023/08/27 03:55:04;;;;;;;6.67;4.57;;;15.10;99.90;;;;;;5093119;28;20202;-85
2023/08/27 03:57:42;;;;;;;4.80;3.93;;;15.00;99.90;;;;;;5094448;28;20299;-84
2023/08/27 04:00:09;;;;;;;4.67;4.00;;;15.10;99.90;;;;;;5102508;28;20199;-83
2023/08/27 04:02:36;;;;;;;4.67;3.70;;;15.10;99.90;;;;;;5095618;28;20643;-85
2023/08/27 04:05:05;;;;;;;4.70;3.77;;;15.10;99.90;;;;;;5110963;27;20314;-84
2023/08/27 04:07:32;;;;;;;4.60;3.20;;;15.10;99.90;;;;;;5105246;28;20613;-83
2023/08/27 04:09:59;;;;;;;5.23;4.10;;;15.10;99.90;;;;;;5114393;28;20293;-84
2023/08/27 04:12:33;;;;;;;5.40;3.23;;;15.10;99.90;;;;;;5115439;28;20187;-83
2023/08/27 04:15:03;;;;;;;7.40;4.13;;;15.10;99.90;;;;;;5097741;28;20611;-82
2023/08/27 04:17:32;;;;;;;4.83;3.73;;;15.00;99.90;;;;;;5113169;28;20719;-83
2023/08/27 04:20:01;;;;;;;5.67;4.33;;;15.10;99.90;;;;;;5114130;28;20191;-84
2023/08/27 04:22:29;;;;;;;7.40;4.83;;;15.00;99.90;;;;;;5124973;27;20203;-82
2023/08/27 04:24:56;;;;;;;7.07;4.53;;;15.00;99.90;;;;;;5099699;28;20655;-84
2023/08/27 04:27:23;;;;;;;6.77;4.27;;;15.10;99.90;;;;;;5097271;28;20207;-84
2023/08/27 04:29:50;;;;;;;7.20;4.60;;;15.00;99.90;;;;;;5111942;28;20673;-83
2023/08/27 04:32:16;;;;;;;6.97;4.97;;;15.10;99.90;;;;;;5109474;28;20220;-83
2023/08/27 04:34:43;;;;;;;5.93;4.43;;;15.00;99.90;;;;;;5102200;28;20635;-84
2023/08/27 04:37:10;;;;;;;6.50;4.27;;;15.00;99.90;;;;;;5113934;28;20702;-83
2023/08/27 04:39:37;;;;;;;5.60;4.10;;;14.90;99.90;;;;;;5112954;28;20207;-82
2023/08/27 04:42:03;;;;;;;8.20;4.70;;;14.90;99.90;;;;;;5112757;28;20223;-85
2023/08/27 04:44:31;;;;;;;6.03;4.40;;;14.90;99.90;;;;;;5112298;28;20191;-83
2023/08/27 04:46:58;;;;;;;7.00;4.83;;;14.90;99.90;;;;;;5111446;28;20626;-82
2023/08/27 04:49:25;;;;;;;7.43;4.97;;;14.90;99.90;;;;;;5096531;27;20200;-85
2023/08/27 04:51:52;;;;;;;8.90;5.50;;;14.90;99.90;;;;;;5106778;28;20525;-84
2023/08/27 04:54:19;;;;;;;7.33;5.10;;;14.90;99.90;;;;;;5110120;28;20244;-85
2023/08/27 04:56:47;;;;;;;6.43;4.97;;;14.90;99.90;;;;;;5105645;28;20295;-83
2023/08/27 04:59:13;;;;;;;10.63;4.77;;;14.90;99.90;;;;;;5093654;28;20215;-83
2023/08/27 05:01:42;;;;;;;9.33;5.50;;;14.90;99.90;;;;;;5090458;28;20223;-85
2023/08/27 05:04:09;;;;;;;8.63;4.80;;;14.90;99.90;;;;;;5113133;27;20218;-84
2023/08/27 05:06:36;;;;;;;6.57;4.60;;;15.00;99.90;;;;;;5114676;27;20213;-85
2023/08/27 05:09:04;;;;;;;8.90;4.90;;;15.00;99.90;;;;;;5094475;27;20199;-84
2023/08/27 05:11:31;;;;;;;7.40;4.60;;;15.00;99.90;;;;;;5103743;27;20200;-85
2023/08/27 05:13:57;;;;;;;7.70;4.80;;;15.00;99.90;;;;;;5116516;27;20214;-84
2023/08/27 05:16:26;;;;;;;4.83;3.97;;;15.00;99.90;;;;;;5121713;27;20255;-84
2023/08/27 05:18:53;;;;;;;8.00;4.23;;;15.00;99.90;;;;;;5120483;27;20619;-84
2023/08/27 05:21:21;;;;;;;5.57;4.30;;;15.00;99.90;;;;;;5117258;27;20234;-85
2023/08/27 05:23:48;;;;;;;6.73;4.30;;;15.00;99.90;;;;;;5117500;28;20203;-84
2023/08/27 05:26:15;;;;;;;6.97;5.13;;;15.00;99.90;;;;;;5116549;27;20191;-85
2023/08/27 05:28:42;;;;;;;6.83;4.90;;;14.90;99.90;;;;;;5112271;27;20655;-85
2023/08/27 05:31:09;;;;;;;6.30;3.80;;;15.00;99.90;;;;;;5102974;28;20293;-88
2023/08/27 05:33:36;;;;;;;5.17;3.60;;;15.00;99.90;;;;;;5090201;28;20308;-86
2023/08/27 05:36:03;;;;;;;5.37;4.20;;;15.00;99.90;;;;;;5092703;28;20199;-85
2023/08/27 05:38:31;;;;;;;6.17;4.47;;;15.00;99.90;;;;;;5116967;28;20222;-86
2023/08/27 05:41:01;;;;;;;5.10;3.23;;;15.00;99.90;;;;;;5117509;28;20203;-85
2023/08/27 05:43:28;;;;;;;6.47;4.00;;;15.00;99.90;;;;;;5117189;28;20256;-87
2023/08/27 05:45:55;;;;;;;5.83;3.50;;;15.00;99.90;;;;;;5098357;27;20222;-86
2023/08/27 05:48:23;;;;;;;7.37;4.10;;;15.00;99.90;;;;;;5107375;28;20293;-86
2023/08/27 05:50:51;;;;;;;5.40;3.77;;;15.00;99.90;;;;;;5105848;27;20665;-85
2023/08/27 05:53:19;;;;;;;6.07;4.23;;;15.10;99.90;;;;;;5102860;28;20248;-88
2023/08/27 05:55:57;;;;;;;5.47;4.10;;;15.10;99.90;;;;;;5114977;28;20204;-84
2023/08/27 05:58:24;;;;;;;5.83;3.77;;;15.10;99.90;;;;;;5119854;27;20698;-89
2023/08/27 06:00:54;;;;;;;5.33;3.83;;;15.10;99.90;;;;;;5125211;27;20191;-87
2023/08/27 06:03:21;;;;;;;4.57;3.50;;;15.10;99.90;;;;;;5130088;27;20267;-85
2023/08/27 06:05:49;;;;;;;6.60;3.70;;;15.10;99.90;;;;;;5110322;28;20177;-87
2023/08/27 06:08:17;;;;;;;4.50;3.37;;;15.10;99.90;;;;;;5102258;28;20202;-87
2023/08/27 06:10:45;;;;;;;6.57;4.00;;;15.20;99.90;;;;;;5107268;27;20195;-87
2023/08/27 06:13:18;;;;;;;5.43;3.80;;;15.10;99.90;;;;;;5124113;27;20229;-87
2023/08/27 06:15:47;;;;;;;5.77;3.83;;;15.10;99.90;;;;;;5111473;27;20218;-90
2023/08/27 06:18:16;;;;;;;4.97;3.60;;;15.20;99.90;;;;;;5114501;27;20229;-87
2023/08/27 06:20:48;;;;;;;6.17;4.40;;;15.20;99.90;;;;;;5127235;27;20203;-87
2023/08/27 06:23:18;;;;;;;6.87;4.40;;;15.20;99.90;;;;;;5094936;28;20199;-87
2023/08/27 06:25:47;;;;;;;6.57;4.47;;;15.30;99.90;;;;;;5123886;28;20207;-91
2023/08/27 06:28:15;;;;;;;9.80;4.43;;;15.60;99.90;;;;;;5104902;28;20206;-88
2023/08/27 06:30:43;;;;;;;7.45;4.45;;;15.90;99.90;;;;;;5129093;27;20213;-86
2023/08/27 06:33:13;;;;;;;3.67;2.92;;;16.60;99.90;;;;;;5133156;27;20199;-89
2023/08/27 06:35:46;;;;;;;5.47;3.17;;;16.90;99.90;;;;;;5112941;27;20191;-88
2023/08/27 06:38:14;;;;;;;3.45;3.03;;;17.00;99.90;;;;;;5131877;28;20227;-88
2023/08/27 06:40:41;;;;;;;3.95;3.20;;;17.00;99.90;;;;;;5132499;28;20244;-87
2023/08/27 06:43:12;;;;;;;4.45;3.03;;;17.00;99.90;;;;;;5118119;27;20210;-88
2023/08/27 06:45:45;;;;;;;4.68;3.50;;;16.90;99.90;;;;;;5126006;28;20203;-87
2023/08/27 06:48:15;;;;;;;3.22;2.80;;;16.90;99.90;;;;;;5097735;28;20210;-86
2023/08/27 06:50:43;;;;;;;4.18;3.08;;;16.90;99.90;;;;;;5112147;27;20231;-86
2023/08/27 06:53:10;;;;;;;4.38;3.08;;;16.90;99.90;;;;;;5111563;28;20248;-86
2023/08/27 06:55:37;;;;;;;3.20;2.60;;;17.10;99.90;;;;;;5095681;28;20202;-86
2023/08/27 06:58:04;;;;;;;3.45;2.72;;;18.20;99.90;;;;;;5117210;27;20439;-86
2023/08/27 07:00:31;;;;;;;4.10;2.25;;;18.30;99.90;;;;;;5097379;28;20688;-85
2023/08/27 07:02:58;;;;;;;2.55;2.00;;;19.00;99.90;;;;;;5116731;28;20270;-84
2023/08/27 07:05:26;;;;;;;2.20;2.00;;;19.30;99.90;;;;;;5120008;28;20195;-86
2023/08/27 07:07:53;;;;;;;2.47;1.83;;;20.30;99.90;;;;;;5102386;28;20203;-86
2023/08/27 07:10:21;;;;;;;2.88;2.05;;;20.70;99.90;;;;;;5121662;27;20190;-86
2023/08/27 07:12:48;;;;;;;3.90;1.90;;;21.00;99.90;;;;;;5122583;28;20206;-84
2023/08/27 07:15:16;;;;;;;3.15;1.52;;;21.60;99.90;;;;;;5115957;28;20278;-86
2023/08/27 07:17:43;;;;;;;2.42;1.60;;;21.90;99.90;;;;;;5098323;27;20348;-84
2023/08/27 07:20:11;;;;;;;3.50;1.42;;;22.30;99.90;;;;;;5102542;28;20221;-84
2023/08/27 07:22:38;;;;;;;3.35;1.50;;;22.50;99.90;;;;;;5096425;27;20206;-86
2023/08/27 07:25:06;;;;;;;1.80;1.40;;;22.60;99.90;;;;;;5108654;27;20211;-85
2023/08/27 07:27:35;;;;;;;3.08;1.30;;;23.00;99.90;;;;;;5096011;28;20207;-84
2023/08/27 07:30:03;;;;;;;2.45;1.65;;;24.20;99.90;;;;;;5096005;28;20196;-85
2023/08/27 07:32:33;;;;;;;1.50;1.35;;;23.40;99.90;;;;;;5105646;27;20259;-86
2023/08/27 07:35:00;;;;;;;2.80;1.70;;;23.80;99.90;;;;;;5100908;28;20215;-85
2023/08/27 07:37:30;;;;;;;3.13;1.80;;;23.00;99.90;;;;;;5120111;27;20265;-84
2023/08/27 07:39:58;;;;;;;3.55;2.03;;;23.00;99.90;;;;;;5132307;27;20270;-84
2023/08/27 07:42:25;;;;;;;4.65;2.80;;;23.00;99.90;;;;;;5108802;27;20262;-85
2023/08/27 07:44:52;;;;;;;3.90;2.90;;;23.00;99.90;;;;;;5107140;28;20207;-83
2023/08/27 07:47:18;;;;;;;5.75;3.45;;;22.40;99.90;;;;;;5115651;28;20215;-85
2023/08/27 07:49:46;;;;;;;4.45;3.58;;;22.10;99.90;;;;;;5101433;28;20207;-85
2023/08/27 07:52:13;;;;;;;6.43;3.88;;;21.50;99.90;;;;;;5114540;28;20315;-84
2023/08/27 07:54:40;;;;;;;6.25;3.78;;;21.40;99.90;;;;;;5106625;28;20199;-86
2023/08/27 07:57:07;;;;;;;6.30;4.68;;;21.30;99.90;;;;;;5125550;27;20210;-87
2023/08/27 07:59:43;;;;;;;5.50;4.10;;;21.50;99.90;;;;;;5137180;27;20677;-85
2023/08/27 08:02:10;;;;;;;6.05;4.13;;;21.70;99.90;;;;;;5083266;27;20219;-85
2023/08/27 08:04:39;;;;;;;7.47;4.20;;;21.50;99.90;;;;;;5128204;27;20261;-83
2023/08/27 08:07:09;;;;;;;6.15;5.00;;;21.50;99.90;;;;;;5101914;27;20205;-84
2023/08/27 08:09:36;;;;;;;8.98;6.07;;;21.30;99.90;;;;;;5115759;27;20211;-84
2023/08/27 08:12:03;;;;;;;6.45;5.20;;;21.40;99.90;;;;;;5099075;28;20206;-83
2023/08/27 08:14:31;;;;;;;9.48;6.18;;;20.70;99.90;;;;;;5108061;27;20254;-83
2023/08/27 08:17:08;;;;;;;7.40;5.70;;;20.20;99.90;;;;;;5111516;27;20732;-84
2023/08/27 08:19:39;;;;;;;11.10;6.07;;;20.40;99.90;;;;;;5099199;27;20207;-82
2023/08/27 08:22:06;;;;;;;7.00;5.75;;;20.60;99.90;;;;;;5094091;28;20195;-83
2023/08/27 08:24:33;;;;;;;7.03;5.45;;;21.00;99.90;;;;;;5093014;28;20265;-83
2023/08/27 08:27:02;;;;;;;6.80;5.97;;;21.90;99.90;;;;;;5115018;28;20207;-84
2023/08/27 08:29:32;;;;;;;5.97;4.82;;;21.70;99.90;;;;;;5126874;27;20222;-85
2023/08/27 08:32:00;;;;;;;7.95;5.95;;;21.70;99.90;;;;;;5100750;28;20203;-84
2023/08/27 08:34:30;;;;;;;6.85;5.63;;;21.80;99.90;;;;;;5100508;28;20190;-83
2023/08/27 08:36:57;;;;;;;5.90;5.30;;;22.70;99.90;;;;;;5094314;28;20199;-83
2023/08/27 08:39:27;;;;;;;6.22;5.25;;;22.90;99.90;;;;;;5120462;27;20222;-84
2023/08/27 08:42:12;;;;;;;6.05;4.57;;;22.80;99.90;;;;;;5121788;27;20222;-84
2023/08/27 08:45:10;;;;;;;4.88;4.13;;;23.30;99.90;;;;;;5116462;27;20202;-83
2023/08/27 08:47:37;;;;;;;5.80;3.67;;;23.80;99.90;;;;;;5093915;28;20207;-85
2023/08/27 08:50:08;;;;;;;4.43;3.92;;;23.90;99.90;;;;;;5103597;27;20195;-83
2023/08/27 08:52:38;;;;;;;5.50;3.63;;;23.90;99.90;;;;;;5103027;27;20195;-85
2023/08/27 08:55:11;;;;;;;4.35;3.95;;;23.80;99.90;;;;;;5127758;27;20206;-85
2023/08/27 08:57:43;;;;;;;4.18;3.60;;;23.80;99.90;;;;;;5107297;28;20222;-85
2023/08/27 09:00:12;;;;;;;3.85;3.15;;;23.80;99.90;;;;;;5117949;27;20210;-82
2023/08/27 09:02:39;;;;;;;3.45;2.95;;;24.10;99.90;;;;;;5100441;28;20218;-83
2023/08/27 09:05:10;;;;;;;3.80;3.00;;;24.10;99.90;;;;;;5090351;28;20766;-83
2023/08/27 09:07:38;;;;;;;5.35;3.05;;;23.90;99.90;;;;;;5093171;28;20682;-82
2023/08/27 09:10:08;;;;;;;3.55;2.67;;;24.40;99.90;;;;;;5111968;27;20619;-81
2023/08/27 09:12:39;;;;;;;4.13;2.50;;;24.50;99.90;;;;;;5110359;27;20282;-80
2023/08/27 09:15:10;;;;;;;4.45;2.45;;;24.50;99.90;;;;;;5111587;27;20593;-82
2023/08/27 09:17:38;;;;;;;3.88;2.42;;;23.90;99.90;;;;;;5105891;28;20227;-82
2023/08/27 09:20:07;;;;;;;3.13;2.35;;;;;;;;;;5109689;28;20672;-81
2023/08/27 09:22:35;;;;;;;3.50;2.42;;;23.00;99.90;;;;;;5101508;28;20192;-82
2023/08/27 09:25:04;;;;;;;4.15;2.60;;;22.60;99.90;;;;;;5091728;28;20207;-82
2023/08/27 09:27:34;;;;;;;3.13;2.45;;;22.20;99.90;;;;;;5102400;28;20738;-80
2023/08/27 09:30:02;;;;;;;4.50;2.60;;;21.70;99.90;;;;;;5097073;28;20211;-83
2023/08/27 09:32:30;;;;;;;3.45;2.80;;;21.60;99.90;;;;;;5109712;28;20246;-81
2023/08/27 09:34:59;;;;;;;4.60;2.50;;;21.90;99.90;;;;;;5090091;28;20214;-80
2023/08/27 09:37:27;;;;;;;4.43;2.80;;;21.60;99.90;;;;;;5109374;28;20215;-81
2023/08/27 09:39:55;;;;;;;4.78;3.10;;;21.50;99.90;;;;;;5104745;28;20211;-79
2023/08/27 09:42:22;;;;;;;4.32;3.10;;;21.00;99.90;;;;;;5090928;28;20298;-79
2023/08/27 09:44:51;;;;;;;4.70;3.15;;;21.10;99.90;;;;;;5114285;28;20736;-80
2023/08/27 09:47:31;;;;;;;3.40;2.70;;;21.10;99.90;;;;;;5102994;28;20294;-80
2023/08/27 09:50:02;;;;;;;3.42;3.13;;;21.10;99.90;;;;;;5115106;28;20655;-84
2023/08/27 09:52:29;;;;;;;4.43;3.47;;;21.00;99.90;;;;;;5110743;28;20573;-83
2023/08/27 09:54:59;;;;;;;5.20;3.47;;;20.90;99.90;;;;;;5126814;28;20217;-81
2023/08/27 09:57:28;;;;;;;5.40;3.20;;;21.00;99.90;;;;;;5105443;28;20207;-80
2023/08/27 09:59:55;;;;;;;3.85;3.45;;;21.30;99.90;;;;;;5102737;28;20270;-81
2023/08/27 10:02:22;;;;;;;5.10;3.50;;;21.20;99.90;;;;;;5097822;28;20650;-81
2023/08/27 10:04:58;;;;;;;5.03;2.97;;;21.60;99.90;;;;;;5109625;28;20228;-82
2023/08/27 10:07:25;;;;;;;3.90;3.10;;;21.70;99.90;;;;;;5087908;28;20195;-81
2023/08/27 10:09:55;;;;;;;4.55;3.00;;;22.10;99.90;;;;;;5117467;28;20191;-81
2023/08/27 10:12:23;;;;;;;2.85;2.58;;;22.10;99.90;;;;;;5105482;27;20220;-80
2023/08/27 10:14:50;;;;;;;3.30;2.60;;;22.00;99.90;;;;;;5103649;28;20207;-81
2023/08/27 10:17:17;;;;;;;3.60;3.28;;;21.60;99.90;;;;;;5112947;28;20694;-81
2023/08/27 10:19:45;;;;;;;4.70;3.17;;;21.60;99.90;;;;;;5106720;28;20566;-81
2023/08/27 10:22:12;;;;;;;4.72;3.25;;;21.80;99.90;;;;;;5100571;28;20203;-82
2023/08/27 10:24:42;;;;;;;7.13;3.85;;;21.90;99.90;;;;;;5090467;28;20213;-83
2023/08/27 10:27:09;;;;;;;5.13;2.85;;;21.70;99.90;;;;;;5106997;28;20909;-82
2023/08/27 10:29:37;;;;;;;4.13;3.30;;;21.60;99.90;;;;;;5094073;28;20248;-81
2023/08/27 10:32:04;;;;;;;5.03;3.63;;;21.70;99.90;;;;;;5110227;28;20230;-80
2023/08/27 10:34:31;;;;;;;5.43;3.83;;;21.40;99.90;;;;;;5114270;27;20571;-82
2023/08/27 10:37:06;;;;;;;4.68;3.30;;;21.00;99.90;;;;;;5110388;28;20210;-81
2023/08/27 10:39:35;;;;;;;2.40;2.20;;;20.60;99.90;;;;;;5113704;27;20276;-81
2023/08/27 10:42:03;;;;;;;2.78;2.35;;;20.10;99.90;;;;;;5111354;27;20199;-79
2023/08/27 10:44:30;;;;;;;1.70;1.60;;;;;;;;;;5113317;27;20209;-80
2023/08/27 10:47:09;;;;;;;1.60;1.50;;;19.00;99.90;;;;;;5111287;28;20203;-82
2023/08/27 10:49:37;;;;;;;1.80;1.70;;;18.70;99.90;;;;;;5113847;27;20199;-80
2023/08/27 10:52:18;;;;;;;3.25;1.67;;;18.20;99.90;;;;;;5110268;27;20210;-81
2023/08/27 10:54:58;;;;;;;2.13;1.60;;;17.70;99.90;;;;;;5111942;28;20199;-82
2023/08/27 10:57:25;;;;;;;2.38;1.70;;;17.50;99.90;;;;;;5109085;27;20199;-79
2023/08/27 11:00:07;;;;;;;1.63;1.40;;;17.20;99.90;;;;;;5117772;27;20253;-80
2023/08/27 11:03:12;;;;;;;1.45;1.35;;;17.20;99.90;;;;;;5106168;27;20769;-83
2023/08/27 11:05:43;;;;;;;2.35;1.42;;;17.20;99.90;;;;;;5119271;27;20281;-83
2023/08/27 11:08:16;;;;;;;1.40;1.30;;;17.10;99.90;;;;;;5106582;27;20207;-82
2023/08/27 11:10:44;;;;;;;1.40;1.30;;;17.00;99.90;;;;;;5103487;27;20206;-82
2023/08/27 11:13:36;;;;;;;2.78;1.60;;;17.00;99.90;;;;;;5110663;27;20203;-81
2023/08/27 11:16:16;;;;;;;2.05;1.20;;;17.00;99.90;;;;;;5111663;27;20632;-82
2023/08/27 11:18:52;;;;;;;1.42;1.33;;;17.00;99.90;;;;;;5110198;27;20222;-81
2023/08/27 11:21:20;;;;;;;1.70;1.50;;;17.00;99.90;;;;;;5111025;27;20231;-81
2023/08/27 11:24:12;;;;;;;1.73;1.42;;;17.10;99.90;;;;;;5110819;28;20254;-83
2023/08/27 11:26:40;;;;;;;1.30;1.20;;;17.10;99.90;;;;;;5103739;28;20244;-82
2023/08/27 11:29:11;;;;;;;3.53;1.67;;;17.10;99.90;;;;;;5104402;27;20248;-81
2023/08/27 11:31:40;;;;;;;1.45;1.35;;;17.20;99.90;;;;;;5111487;28;20679;-81
2023/08/27 11:34:10;;;;;;;1.35;1.25;;;17.10;99.90;;;;;;5109585;27;20203;-81
2023/08/27 11:36:44;;;;;;;1.33;1.23;;;17.00;99.90;;;;;;5110723;28;20214;-81
2023/08/27 11:39:16;;;;;;;2.05;1.50;;;16.90;99.90;;;;;;5115771;27;20654;-81
2023/08/27 11:41:44;;;;;;;1.88;1.58;;;16.80;99.90;;;;;;5107532;27;20321;-82
2023/08/27 11:44:11;;;;;;;2.72;1.70;;;16.80;99.90;;;;;;5119287;27;20250;-81
2023/08/27 11:46:39;;;;;;;1.83;1.33;;;16.70;99.90;;;;;;5104179;28;20704;-81
2023/08/27 11:49:07;;;;;;;1.83;1.73;;;16.60;99.90;;;;;;5091743;27;20187;-82
2023/08/27 11:51:34;;;;;;;3.13;1.80;;;16.50;99.90;;;;;;5115395;27;20202;-80
2023/08/27 11:54:07;;;;;;;1.80;1.70;;;16.40;99.90;;;;;;5121381;27;20593;-81
2023/08/27 11:56:40;;;;;;;2.88;1.73;;;16.30;99.90;;;;;;5089152;28;20200;-81
2023/08/27 11:59:06;;;;;;;3.53;1.90;;;16.10;99.90;;;;;;5112758;27;20294;-83
2023/08/27 12:01:33;;;;;;;2.88;1.77;;;15.80;99.90;;;;;;5113774;27;20609;-81
2023/08/27 12:04:01;;;;;;;3.45;2.25;;;15.90;99.90;;;;;;5113595;27;20218;-82
2023/08/27 12:06:30;;;;;;;2.72;2.30;;;15.90;99.90;;;;;;5110721;27;20226;-81
2023/08/27 12:08:57;;;;;;;2.00;1.90;;;15.90;99.90;;;;;;5117195;27;20518;-81
2023/08/27 12:11:27;;;;;;;2.22;2.00;;;16.00;99.90;;;;;;5109627;27;20564;-84
2023/08/27 12:13:58;;;;;;;2.03;1.85;;;16.00;99.90;;;;;;5114605;27;20695;-81
2023/08/27 12:16:33;;;;;;;2.15;1.90;;;15.90;99.90;;;;;;5107000;27;20526;-81
2023/08/27 12:19:03;;;;;;;2.75;1.73;;;15.80;99.90;;;;;;5107880;28;20258;-80
2023/08/27 12:21:50;;;;;;;2.28;1.83;;;15.80;99.90;;;;;;5106586;27;20602;-81
2023/08/27 12:24:57;;;;;;;;;;;;;;;;;;;;;
2023/08/27 12:27:27;;;;;;;3.30;2.08;;;15.80;99.90;;;;;;5103603;27;20617;-81
2023/08/27 12:29:54;;;;;;;2.22;2.08;;;16.10;99.90;;;;;;5113248;27;20646;-81
2023/08/27 12:32:23;;;;;;;2.33;2.10;;;16.30;99.90;;;;;;5109585;27;20206;-82
2023/08/27 12:34:51;;;;;;;1.88;1.75;;;16.80;99.90;;;;;;5112579;27;20225;-81
2023/08/27 12:37:20;;;;;;;2.53;1.90;;;17.30;99.90;;;;;;5109961;28;20872;-81
2023/08/27 12:39:47;;;;;;;2.03;1.65;;;17.80;99.90;;;;;;5092064;28;20254;-81
2023/08/27 12:42:15;;;;;;;1.90;1.77;;;18.30;99.90;;;;;;5114454;27;20211;-80
2023/08/27 12:44:45;;;;;;;1.60;1.50;;;18.40;99.90;;;;;;5115239;27;20206;-83
2023/08/27 12:47:17;;;;;;;4.10;1.52;;;18.60;99.90;;;;;;5107666;27;20256;-83
2023/08/27 12:49:45;;;;;;;2.28;1.40;;;18.70;99.90;;;;;;5094124;28;20206;-82
2023/08/27 12:52:12;;;;;;;1.40;1.30;;;18.80;99.90;;;;;;5117809;27;20204;-82
2023/08/27 12:54:38;;;;;;;1.98;1.10;;;19.00;99.90;;;;;;5113065;27;20601;-80
2023/08/27 12:57:05;;;;;;;1.30;1.20;;;19.10;99.90;;;;;;5092617;28;20204;-81
2023/08/27 12:59:32;;;;;;;1.17;1.05;;;19.30;99.90;;;;;;5118559;27;20701;-80